createdAt,value
2023-10-21T00:02:26.099Z,95809.13
2023-10-21T00:04:52.670Z,95812.88
2023-10-21T00:07:19.219Z,95799.97
2023-10-21T00:09:45.686Z,95811.03
2023-10-21T00:12:13.285Z,95801.00
2023-10-21T00:14:39.896Z,95798.78
2023-10-21T00:17:06.372Z,95804.66
2023-10-21T00:19:33.096Z,95802.75
2023-10-21T00:22:00.082Z,95818.34
2023-10-21T00:24:26.748Z,95819.19
2023-10-21T00:26:54.089Z,95813.53
2023-10-21T00:29:20.742Z,95807.44
2023-10-21T00:31:47.232Z,95800.63
2023-10-21T00:34:14.027Z,95802.50
2023-10-21T00:36:40.585Z,95801.25
2023-10-21T00:39:12.407Z,95812.59
2023-10-21T00:41:43.387Z,95819.63
2023-10-21T00:44:09.965Z,95821.16
2023-10-21T00:46:37.745Z,95827.34
2023-10-21T00:49:05.634Z,95819.16
2023-10-21T00:51:33.397Z,95832.16
2023-10-21T00:54:02.220Z,95836.50
2023-10-21T00:56:28.838Z,95834.84
2023-10-21T00:58:55.795Z,95842.81
2023-10-21T01:01:22.659Z,95840.34
2023-10-21T01:03:50.410Z,95844.78
2023-10-21T01:06:17.087Z,95857.34
2023-10-21T01:08:44.481Z,95843.63
2023-10-21T01:11:11.778Z,95852.53
2023-10-21T01:13:38.745Z,95856.16
2023-10-21T01:16:05.403Z,95861.91
2023-10-21T01:18:35.100Z,95870.69
2023-10-21T01:21:02.634Z,95874.22
2023-10-21T01:23:33.173Z,95875.16
2023-10-21T01:25:59.710Z,95866.91
2023-10-21T01:28:27.290Z,95870.44
2023-10-21T01:30:53.972Z,95877.22
2023-10-21T01:33:20.562Z,95892.91
2023-10-21T01:35:47.190Z,95891.38
2023-10-21T01:38:14.002Z,95888.91
2023-10-21T01:40:40.503Z,95893.34
2023-10-21T01:43:07.078Z,95891.69
2023-10-21T01:45:35.975Z,95894.50
2023-10-21T01:48:04.226Z,95891.94
2023-10-21T01:50:30.858Z,95901.69
2023-10-21T01:52:57.817Z,95909.53
2023-10-21T01:55:24.745Z,95903.47
2023-10-21T01:57:51.729Z,95904.16
2023-10-21T02:00:21.797Z,95914.06
2023-10-21T02:02:53.715Z,95928.59
2023-10-21T02:05:21.995Z,95928.41
2023-10-21T02:07:48.871Z,95920.09
2023-10-21T02:10:15.487Z,95928.56
2023-10-21T02:12:42.004Z,95930.31
2023-10-21T02:15:13.081Z,95926.09
2023-10-21T02:17:40.871Z,95933.59
2023-10-21T02:20:08.141Z,95938.19
2023-10-21T02:22:34.873Z,95940.47
2023-10-21T02:25:05.581Z,95936.13
2023-10-21T02:27:41.702Z,95942.09
2023-10-21T02:30:11.610Z,95948.69
2023-10-21T02:32:38.901Z,95954.09
2023-10-21T02:35:06.076Z,95954.69
2023-10-21T02:37:32.535Z,95966.94
2023-10-21T02:39:59.180Z,95972.00
2023-10-21T02:42:25.654Z,95975.28
2023-10-21T02:44:52.799Z,95977.97
2023-10-21T02:47:19.306Z,95986.44
2023-10-21T02:49:45.804Z,95987.97
2023-10-21T02:52:12.290Z,95989.31
2023-10-21T02:54:39.255Z,95997.69
2023-10-21T02:57:05.928Z,95997.13
2023-10-21T02:59:32.423Z,96001.25
2023-10-21T03:01:58.870Z,96004.41
2023-10-21T03:04:25.303Z,96009.03
2023-10-21T03:06:53.118Z,96008.09
2023-10-21T03:09:20.664Z,96017.09
2023-10-21T03:11:47.178Z,96021.47
2023-10-21T03:14:13.642Z,96026.41
2023-10-21T03:16:40.113Z,96033.09
2023-10-21T03:19:06.637Z,96039.78
2023-10-21T03:21:33.152Z,96040.75
2023-10-21T03:23:59.899Z,96041.34
2023-10-21T03:26:26.560Z,96045.81
2023-10-21T03:28:53.173Z,96047.47
2023-10-21T03:31:21.434Z,96064.25
2023-10-21T03:33:48.328Z,96055.47
2023-10-21T03:36:14.928Z,96060.63
2023-10-21T03:38:41.608Z,96050.41
2023-10-21T03:41:13.017Z,96061.06
2023-10-21T03:43:39.807Z,96060.97
2023-10-21T03:46:08.225Z,96066.94
2023-10-21T03:48:35.601Z,96069.63
2023-10-21T03:51:07.321Z,96070.09
2023-10-21T03:53:34.812Z,96074.31
2023-10-21T03:56:02.451Z,96076.91
2023-10-21T03:58:29.464Z,96078.22
2023-10-21T04:00:58.229Z,96085.88
2023-10-21T04:03:28.926Z,96080.69
2023-10-21T04:05:56.753Z,96091.25
2023-10-21T04:08:24.649Z,96098.91
2023-10-21T04:10:51.605Z,96087.50
2023-10-21T04:13:18.112Z,96108.91
2023-10-21T04:15:44.709Z,96102.38
2023-10-21T04:18:11.534Z,96113.72
2023-10-21T04:20:39.340Z,96117.63
2023-10-21T04:23:05.822Z,96129.22
2023-10-21T04:25:32.682Z,96123.56
2023-10-21T04:27:59.286Z,96128.84
2023-10-21T04:30:26.748Z,96118.72
2023-10-21T04:32:53.608Z,96127.44
2023-10-21T04:35:20.821Z,96121.03
2023-10-21T04:37:47.590Z,96122.06
2023-10-21T04:40:16.733Z,96135.09
2023-10-21T04:42:43.333Z,96142.84
2023-10-21T04:45:10.768Z,96143.78
2023-10-21T04:47:37.768Z,96148.34
2023-10-21T04:50:05.333Z,96155.97
2023-10-21T04:52:32.546Z,96158.03
2023-10-21T04:54:59.330Z,96164.88
2023-10-21T04:57:25.854Z,96166.31
2023-10-21T04:59:52.353Z,96186.03
2023-10-21T05:02:18.822Z,96190.25
2023-10-21T05:04:45.462Z,96189.44
2023-10-21T05:07:12.008Z,96198.00
2023-10-21T05:09:38.504Z,96200.38
2023-10-21T05:12:05.355Z,96205.53
2023-10-21T05:14:32.241Z,96205.97
2023-10-21T05:16:58.790Z,96199.66
2023-10-21T05:19:25.587Z,96213.00
2023-10-21T05:21:52.070Z,96216.41
2023-10-21T05:24:18.621Z,96227.88
2023-10-21T05:26:45.133Z,96233.69
2023-10-21T05:29:13.144Z,96246.06
2023-10-21T05:31:39.774Z,96258.25
2023-10-21T05:34:06.467Z,96257.53
2023-10-21T05:36:33.196Z,96273.03
2023-10-21T05:38:59.762Z,96277.38
2023-10-21T05:41:26.415Z,96273.97
2023-10-21T05:43:53.110Z,96292.97
2023-10-21T05:46:19.693Z,96296.69
2023-10-21T05:48:46.373Z,96300.16
2023-10-21T05:51:14.038Z,96298.41
2023-10-21T05:53:40.503Z,96312.06
2023-10-21T05:56:07.426Z,96311.31
2023-10-21T05:58:35.177Z,96314.00
2023-10-21T06:01:10.078Z,96317.41
2023-10-21T06:03:37.074Z,96319.81
2023-10-21T06:06:04.048Z,96336.66
2023-10-21T06:08:30.990Z,96338.31
2023-10-21T06:10:57.566Z,96351.44
2023-10-21T06:13:25.837Z,96355.38
2023-10-21T06:15:53.115Z,96358.78
2023-10-21T06:18:20.365Z,96365.19
2023-10-21T06:20:50.488Z,96374.19
2023-10-21T06:23:17.527Z,96380.50
2023-10-21T06:25:44.744Z,96387.41
2023-10-21T06:28:12.633Z,96395.88
2023-10-21T06:30:41.978Z,96394.19
2023-10-21T06:33:12.769Z,96404.44
2023-10-21T06:35:39.900Z,96409.22
2023-10-21T06:38:07.482Z,96408.69
2023-10-21T06:40:47.139Z,96416.34
2023-10-21T06:43:20.551Z,96425.91
2023-10-21T06:45:47.010Z,96431.97
2023-10-21T06:48:13.608Z,96432.75
2023-10-21T06:50:40.402Z,96433.56
2023-10-21T06:53:07.246Z,96440.44
2023-10-21T06:55:44.324Z,96440.38
2023-10-21T06:58:14.188Z,96448.00
2023-10-21T07:00:40.937Z,96457.63
2023-10-21T07:03:08.340Z,96453.41
2023-10-21T07:05:36.727Z,96450.88
2023-10-21T07:08:03.785Z,96463.72
2023-10-21T07:10:31.886Z,96461.19
2023-10-21T07:13:02.807Z,96461.66
2023-10-21T07:15:29.882Z,96460.56
2023-10-21T07:17:57.750Z,96473.53
2023-10-21T07:20:24.877Z,96467.31
2023-10-21T07:22:51.388Z,96471.00
2023-10-21T07:25:19.557Z,96476.19
2023-10-21T07:27:47.043Z,96480.75
2023-10-21T07:30:13.899Z,96487.09
2023-10-21T07:32:40.443Z,96504.09
2023-10-21T07:35:07.323Z,96501.31
2023-10-21T07:37:34.375Z,96503.28
2023-10-21T07:40:00.953Z,96511.81
2023-10-21T07:42:27.806Z,96507.78
2023-10-21T07:44:54.991Z,96519.13
2023-10-21T07:47:23.387Z,96525.69
2023-10-21T07:49:53.319Z,96536.56
2023-10-21T07:52:22.974Z,96540.34
2023-10-21T07:54:49.420Z,96555.88
2023-10-21T07:57:16.929Z,96542.66
2023-10-21T07:59:43.765Z,96544.41
2023-10-21T08:02:10.544Z,96563.50
2023-10-21T08:04:37.383Z,96566.47
2023-10-21T08:07:04.311Z,96575.56
2023-10-21T08:09:30.972Z,96579.56
2023-10-21T08:11:57.593Z,96586.50
2023-10-21T08:14:24.152Z,96584.38
2023-10-21T08:16:50.634Z,96589.91
2023-10-21T08:19:18.062Z,96591.81
2023-10-21T08:21:44.889Z,96598.13
2023-10-21T08:24:12.377Z,96594.25
2023-10-21T08:26:39.032Z,96592.97
2023-10-21T08:29:06.849Z,96598.66
2023-10-21T08:31:34.520Z,96598.59
2023-10-21T08:34:01.205Z,96606.44
2023-10-21T08:36:28.002Z,96605.97
2023-10-21T08:38:57.770Z,96616.06
2023-10-21T08:41:24.250Z,96611.56
2023-10-21T08:43:51.067Z,96612.22
2023-10-21T08:46:19.362Z,96616.84
2023-10-21T08:48:49.544Z,96623.69
2023-10-21T08:51:21.622Z,96618.38
2023-10-21T08:53:53.393Z,96632.38
2023-10-21T08:56:20.217Z,96622.41
2023-10-21T08:58:47.294Z,96630.97
2023-10-21T09:01:16.812Z,96626.63
2023-10-21T09:03:44.535Z,96635.00
2023-10-21T09:06:13.013Z,96634.59
2023-10-21T09:08:44.190Z,96638.09
2023-10-21T09:11:13.125Z,96633.03
2023-10-21T09:13:41.305Z,96642.69
2023-10-21T09:16:26.484Z,96639.47
2023-10-21T09:19:05.072Z,96645.63
2023-10-21T09:21:38.762Z,96642.06
2023-10-21T09:24:21.858Z,96648.94
2023-10-21T09:26:49.408Z,96655.38
2023-10-21T09:29:20.701Z,96659.81
2023-10-21T09:31:55.614Z,96673.09
2023-10-21T09:34:33.179Z,96679.72
2023-10-21T09:37:07.572Z,96686.75
2023-10-21T09:39:38.479Z,96688.53
2023-10-21T09:42:06.827Z,96684.78
2023-10-21T09:44:37.312Z,96685.34
2023-10-21T09:47:06.396Z,96685.44
2023-10-21T09:49:41.143Z,96687.72
2023-10-21T09:52:12.743Z,96704.94
2023-10-21T09:54:50.824Z,96688.16
2023-10-21T09:57:17.698Z,96696.25
2023-10-21T09:59:47.723Z,96702.72
2023-10-21T10:02:15.967Z,96712.38
2023-10-21T10:04:44.126Z,96718.03
2023-10-21T10:07:22.890Z,96720.81
2023-10-21T10:09:56.931Z,96716.75
2023-10-21T10:12:27.136Z,96717.25
2023-10-21T10:14:58.360Z,96720.06
2023-10-21T10:17:49.752Z,96719.72
2023-10-21T10:20:23.734Z,96724.09
2023-10-21T10:22:57.388Z,96722.31
2023-10-21T10:25:28.766Z,96716.47
2023-10-21T10:28:00.201Z,96716.16
2023-10-21T10:30:31.874Z,96723.84
2023-10-21T10:33:07.599Z,96724.16
2023-10-21T10:35:41.723Z,96726.97
2023-10-21T10:38:43.172Z,96724.19
2023-10-21T10:41:12.755Z,96732.66
2023-10-21T10:43:42.486Z,96726.34
2023-10-21T10:46:09.990Z,96733.16
2023-10-21T10:48:36.707Z,96724.75
2023-10-21T10:51:17.139Z,96718.88
2023-10-21T10:53:48.174Z,96722.78
2023-10-21T10:56:20.672Z,96725.34
2023-10-21T10:58:48.196Z,96725.56
2023-10-21T11:01:22.217Z,96735.50
2023-10-21T11:03:58.947Z,96736.03
2023-10-21T11:06:32.182Z,96737.47
2023-10-21T11:08:59.896Z,96731.00
2023-10-21T11:11:28.641Z,96735.28
2023-10-21T11:13:56.334Z,96729.00
2023-10-21T11:16:23.022Z,96733.97
2023-10-21T11:18:50.579Z,96738.63
2023-10-21T11:21:17.189Z,96731.63
2023-10-21T11:23:45.047Z,96731.34
2023-10-21T11:26:12.372Z,96732.56
2023-10-21T11:28:39.953Z,96739.44
2023-10-21T11:31:07.168Z,96741.09
2023-10-21T11:33:33.860Z,96739.44
2023-10-21T11:36:03.675Z,96747.13
2023-10-21T11:38:31.338Z,96748.38
2023-10-21T11:40:58.194Z,96753.72
2023-10-21T11:43:28.817Z,96754.59
2023-10-21T11:45:56.864Z,96754.31
2023-10-21T11:48:25.600Z,96761.16
2023-10-21T11:50:52.689Z,96757.31
2023-10-21T11:53:20.381Z,96770.09
2023-10-21T11:55:52.847Z,96766.38
2023-10-21T11:58:39.437Z,96760.63
2023-10-21T12:01:29.564Z,96762.56
2023-10-21T12:04:15.119Z,96769.69
2023-10-21T12:07:14.011Z,96768.97
2023-10-21T12:10:00.071Z,96774.72
2023-10-21T12:12:35.707Z,96779.19
2023-10-21T12:15:19.150Z,96781.09
2023-10-21T12:18:07.787Z,96779.34
2023-10-21T12:20:36.037Z,96788.75
2023-10-21T12:23:20.777Z,96783.00
2023-10-21T12:26:05.621Z,96787.81
2023-10-21T12:28:47.176Z,96786.69
2023-10-21T12:31:32.186Z,96780.88
2023-10-21T12:34:16.979Z,96776.38
2023-10-21T12:36:44.904Z,96773.53
2023-10-21T12:39:17.335Z,96780.16
2023-10-21T12:41:53.194Z,96779.09
2023-10-21T12:44:28.456Z,96784.81
2023-10-21T12:46:59.148Z,96793.66
2023-10-21T12:49:27.268Z,96790.94
2023-10-21T12:51:56.693Z,96799.97
2023-10-21T12:54:23.330Z,96799.97
2023-10-21T12:56:51.220Z,96797.34
2023-10-21T12:59:18.127Z,96796.03
2023-10-21T13:01:44.803Z,96797.84
2023-10-21T13:04:11.505Z,96792.66
2023-10-21T13:06:38.398Z,96795.44
2023-10-21T13:09:22.158Z,96801.09
2023-10-21T13:11:52.459Z,96797.09
2023-10-21T13:14:19.862Z,96809.06
2023-10-21T13:16:46.785Z,96810.34
2023-10-21T13:19:13.595Z,96810.47
2023-10-21T13:21:40.666Z,96819.00
2023-10-21T13:24:08.592Z,96814.31
2023-10-21T13:26:35.059Z,96809.63
2023-10-21T13:29:01.672Z,96816.31
2023-10-21T13:31:30.966Z,96812.34
2023-10-21T13:33:57.487Z,96820.72
2023-10-21T13:36:25.124Z,96822.63
2023-10-21T13:38:51.587Z,96818.13
2023-10-21T13:41:20.344Z,96817.75
2023-10-21T13:43:49.174Z,96811.19
2023-10-21T13:46:15.651Z,96810.16
2023-10-21T13:48:44.306Z,96806.09
2023-10-21T13:51:10.883Z,96820.91
2023-10-21T13:53:37.429Z,96819.59
2023-10-21T13:56:07.595Z,96813.69
2023-10-21T13:58:34.388Z,96821.84
2023-10-21T14:01:01.275Z,96825.16
2023-10-21T14:03:28.960Z,96831.41
2023-10-21T14:06:05.891Z,96835.66
2023-10-21T14:08:35.031Z,96838.81
2023-10-21T14:11:07.228Z,96844.72
2023-10-21T14:13:35.188Z,96856.19
2023-10-21T14:16:06.516Z,96864.34
2023-10-21T14:18:33.785Z,96866.34
2023-10-21T14:21:00.620Z,96857.47
2023-10-21T14:23:29.790Z,96861.03
2023-10-21T14:26:00.776Z,96849.88
2023-10-21T14:28:29.685Z,96853.13
2023-10-21T14:31:00.822Z,96868.50
2023-10-21T14:33:32.515Z,96882.97
2023-10-21T14:36:07.801Z,96879.06
2023-10-21T14:38:35.745Z,96877.81
2023-10-21T14:41:02.758Z,96871.25
2023-10-21T14:43:29.251Z,96876.09
2023-10-21T14:45:55.786Z,96884.69
2023-10-21T14:48:22.386Z,96896.63
2023-10-21T14:50:50.408Z,96891.06
2023-10-21T14:53:17.156Z,96864.69
2023-10-21T14:55:52.418Z,96871.81
2023-10-21T14:58:24.349Z,96881.06
2023-10-21T15:00:52.091Z,96882.16
2023-10-21T15:03:21.777Z,96876.09
2023-10-21T15:05:49.926Z,96877.25
2023-10-21T15:08:21.782Z,96884.28
2023-10-21T15:10:49.674Z,96892.69
2023-10-21T15:13:16.292Z,96897.66
2023-10-21T15:15:44.344Z,96892.09
2023-10-21T15:18:11.512Z,96896.31
2023-10-21T15:20:38.308Z,96907.00
2023-10-21T15:23:05.073Z,96904.72
2023-10-21T15:25:32.220Z,96913.22
2023-10-21T15:27:58.679Z,96909.69
2023-10-21T15:30:25.284Z,96913.00
2023-10-21T15:32:52.194Z,96911.16
2023-10-21T15:35:19.185Z,96913.50
2023-10-21T15:37:46.766Z,96911.56
2023-10-21T15:40:16.794Z,96911.88
2023-10-21T15:42:44.678Z,96917.34
2023-10-21T15:45:12.978Z,96924.41
2023-10-21T15:47:39.539Z,96925.31
2023-10-21T15:50:08.055Z,96918.09
2023-10-21T15:52:35.155Z,96919.94
2023-10-21T15:55:01.717Z,96925.22
2023-10-21T15:57:28.374Z,96926.28
2023-10-21T15:59:54.838Z,96935.16
2023-10-21T16:02:21.985Z,96929.94
2023-10-21T16:04:48.541Z,96936.91
2023-10-21T16:07:15.756Z,96935.53
2023-10-21T16:09:42.480Z,96947.75
2023-10-21T16:12:09.211Z,96944.44
2023-10-21T16:14:36.448Z,96952.59
2023-10-21T16:17:04.888Z,96955.41
2023-10-21T16:19:31.628Z,96946.66
2023-10-21T16:21:58.716Z,96955.91
2023-10-21T16:24:25.534Z,96952.34
2023-10-21T16:26:52.105Z,96950.59
2023-10-21T16:29:18.920Z,96949.97
2023-10-21T16:31:45.861Z,96954.22
2023-10-21T16:34:12.421Z,96956.34
2023-10-21T16:36:40.436Z,96953.03
2023-10-21T16:39:08.080Z,96955.63
2023-10-21T16:41:34.808Z,96948.88
2023-10-21T16:44:02.366Z,96947.47
2023-10-21T16:46:29.316Z,96954.69
2023-10-21T16:48:55.962Z,96958.03
2023-10-21T16:51:22.592Z,96965.44
2023-10-21T16:53:49.132Z,96967.41
2023-10-21T16:56:15.609Z,96964.72
2023-10-21T16:58:42.187Z,96972.47
2023-10-21T17:01:08.710Z,96976.19
2023-10-21T17:03:37.795Z,96982.38
2023-10-21T17:06:04.418Z,96981.53
2023-10-21T17:08:35.341Z,96990.03
2023-10-21T17:11:03.210Z,97008.34
2023-10-21T17:13:29.771Z,97011.94
2023-10-21T17:15:56.335Z,97019.00
2023-10-21T17:18:25.951Z,97015.59
2023-10-21T17:20:52.560Z,97025.00
2023-10-21T17:23:19.146Z,97025.94
2023-10-21T17:25:47.302Z,97031.03
2023-10-21T17:28:14.894Z,97032.75
2023-10-21T17:30:42.415Z,97051.81
2023-10-21T17:33:09.541Z,97057.09
2023-10-21T17:35:36.285Z,97057.19
2023-10-21T17:38:03.047Z,97069.19
2023-10-21T17:40:29.523Z,97066.59
2023-10-21T17:42:59.136Z,97064.78
2023-10-21T17:45:25.765Z,97073.78
2023-10-21T17:47:52.310Z,97089.31
2023-10-21T17:50:18.821Z,97092.06
2023-10-21T17:52:45.296Z,97094.19
2023-10-21T17:55:11.858Z,97089.47
2023-10-21T17:57:39.767Z,97094.25
2023-10-21T18:00:08.274Z,97094.09
2023-10-21T18:02:34.865Z,97092.50
2023-10-21T18:05:01.402Z,97088.03
2023-10-21T18:07:28.040Z,97089.06
2023-10-21T18:09:55.412Z,97089.97
2023-10-21T18:12:22.811Z,97079.44
2023-10-21T18:14:49.354Z,97065.78
2023-10-21T18:17:16.791Z,97069.00
2023-10-21T18:19:43.457Z,97061.34
2023-10-21T18:22:10.228Z,97070.56
2023-10-21T18:24:38.530Z,97082.34
2023-10-21T18:27:08.489Z,97100.63
2023-10-21T18:29:36.398Z,97111.78
2023-10-21T18:32:03.739Z,97107.88
2023-10-21T18:34:30.233Z,97115.06
2023-10-21T18:36:56.746Z,97122.00
2023-10-21T18:39:23.410Z,97110.06
2023-10-21T18:41:49.944Z,97084.38
2023-10-21T18:44:17.383Z,97084.53
2023-10-21T18:46:44.612Z,97096.47
2023-10-21T18:49:11.350Z,97110.44
2023-10-21T18:51:37.963Z,97107.78
2023-10-21T18:54:06.351Z,97109.53
2023-10-21T18:56:33.210Z,97093.94
2023-10-21T18:59:03.406Z,97087.84
2023-10-21T19:01:32.853Z,97081.03
2023-10-21T19:04:00.490Z,97094.00
2023-10-21T19:06:35.062Z,97103.97
2023-10-21T19:09:02.075Z,97103.22
2023-10-21T19:11:28.769Z,97113.72
2023-10-21T19:13:55.882Z,97123.81
2023-10-21T19:16:27.238Z,97115.63
2023-10-21T19:18:54.108Z,97124.38
2023-10-21T19:21:20.727Z,97113.94
2023-10-21T19:23:47.295Z,97111.69
2023-10-21T19:26:13.805Z,97111.13
2023-10-21T19:28:40.401Z,97105.47
2023-10-21T19:31:13.827Z,97107.44
2023-10-21T19:33:42.134Z,97110.03
2023-10-21T19:36:10.368Z,97121.13
2023-10-21T19:38:36.896Z,97127.44
2023-10-21T19:41:07.764Z,97145.50
2023-10-21T19:43:37.088Z,97160.91
2023-10-21T19:46:06.486Z,97159.22
2023-10-21T19:48:33.776Z,97160.75
2023-10-21T19:51:04.760Z,97152.84
2023-10-21T19:53:34.954Z,97152.25
2023-10-21T19:56:03.862Z,97148.91
2023-10-21T19:58:30.682Z,97149.91
2023-10-21T20:01:25.217Z,97155.91
2023-10-21T20:03:51.999Z,97175.50
2023-10-21T20:06:18.614Z,97179.69
2023-10-21T20:08:45.843Z,97183.19
2023-10-21T20:11:12.339Z,97178.00
2023-10-21T20:13:38.999Z,97176.72
2023-10-21T20:16:10.061Z,97171.13
2023-10-21T20:18:41.870Z,97155.47
2023-10-21T20:21:08.728Z,97138.19
2023-10-21T20:23:35.577Z,97142.16
2023-10-21T20:26:05.213Z,97155.88
2023-10-21T20:28:31.888Z,97161.09
2023-10-21T20:30:59.290Z,97161.09
2023-10-21T20:33:26.666Z,97163.22
2023-10-21T20:35:57.655Z,97158.81
2023-10-21T20:38:24.282Z,97154.81
2023-10-21T20:40:52.067Z,97144.88
2023-10-21T20:43:20.172Z,97167.94
2023-10-21T20:45:47.446Z,97170.50
2023-10-21T20:48:14.641Z,97180.84
2023-10-21T20:50:42.027Z,97191.97
2023-10-21T20:53:08.527Z,97188.66
2023-10-21T20:55:39.218Z,97194.78
2023-10-21T20:58:06.567Z,97203.59
2023-10-21T21:00:40.813Z,97210.44
2023-10-21T21:03:07.794Z,97215.59
2023-10-21T21:05:36.260Z,97210.59
2023-10-21T21:08:02.677Z,97216.19
2023-10-21T21:10:29.153Z,97216.34
2023-10-21T21:12:55.666Z,97225.44
2023-10-21T21:15:23.139Z,97229.91
2023-10-21T21:17:50.851Z,97231.38
2023-10-21T21:20:18.332Z,97226.47
2023-10-21T21:22:44.764Z,97215.25
2023-10-21T21:25:11.783Z,97211.78
2023-10-21T21:27:38.570Z,97219.69
2023-10-21T21:30:06.136Z,97219.75
2023-10-21T21:32:36.750Z,97224.22
2023-10-21T21:35:06.996Z,97221.56
2023-10-21T21:37:33.576Z,97235.31
2023-10-21T21:40:00.249Z,97233.69
2023-10-21T21:42:26.884Z,97231.19
2023-10-21T21:44:54.510Z,97229.50
2023-10-21T21:47:21.205Z,97236.66
2023-10-21T21:49:47.776Z,97225.63
2023-10-21T21:52:14.638Z,97228.91
2023-10-21T21:54:44.630Z,97224.91
2023-10-21T21:57:11.567Z,97225.44
2023-10-21T21:59:38.414Z,97229.53
2023-10-21T22:02:04.980Z,97225.19
2023-10-21T22:04:31.650Z,97227.84
2023-10-21T22:06:59.338Z,97239.78
2023-10-21T22:09:28.575Z,97241.69
2023-10-21T22:11:55.215Z,97232.28
2023-10-21T22:14:21.792Z,97233.16
2023-10-21T22:16:51.118Z,97228.00
2023-10-21T22:19:17.949Z,97232.41
2023-10-21T22:21:48.976Z,97235.06
2023-10-21T22:24:16.564Z,97230.06
2023-10-21T22:26:48.105Z,97228.09
2023-10-21T22:29:16.059Z,97236.94
2023-10-21T22:31:43.314Z,97233.53
2023-10-21T22:34:10.135Z,97224.22
2023-10-21T22:36:36.713Z,97221.84
2023-10-21T22:39:05.111Z,97226.63
2023-10-21T22:41:31.744Z,97231.94
2023-10-21T22:43:59.515Z,97227.75
2023-10-21T22:46:26.364Z,97228.75
2023-10-21T22:48:52.934Z,97247.41
2023-10-21T22:51:19.617Z,97245.88
2023-10-21T22:53:46.459Z,97257.81
2023-10-21T22:56:12.953Z,97258.50
2023-10-21T22:58:40.051Z,97261.50
2023-10-21T23:01:10.505Z,97250.66
2023-10-21T23:03:37.175Z,97259.94
2023-10-21T23:06:06.788Z,97258.94
2023-10-21T23:08:40.206Z,97260.59
2023-10-21T23:11:09.667Z,97267.16
2023-10-21T23:13:37.596Z,97262.81
2023-10-21T23:16:04.551Z,97267.91
2023-10-21T23:18:31.336Z,97270.31
2023-10-21T23:20:58.109Z,97267.56
2023-10-21T23:23:24.757Z,97276.25
2023-10-21T23:25:51.252Z,97278.63
2023-10-21T23:28:18.323Z,97276.25
2023-10-21T23:30:44.896Z,97276.88
2023-10-21T23:33:11.576Z,97284.75
2023-10-21T23:35:38.883Z,97278.69
2023-10-21T23:38:06.438Z,97284.59
2023-10-21T23:40:33.759Z,97290.06
2023-10-21T23:43:00.254Z,97295.69
2023-10-21T23:45:26.823Z,97289.16
2023-10-21T23:47:53.493Z,97297.66
2023-10-21T23:50:20.128Z,97294.91
2023-10-21T23:52:46.955Z,97294.00
2023-10-21T23:55:15.161Z,97292.41
2023-10-21T23:57:41.907Z,97299.25
